Time;durP1;ratioP1;P1;durP2;ratioP2;P2;SDS_P1;SDS_P2;PMS_P1;PMS_P2;Temp;Humidity;BMP_temperature;BMP_pressure;BME280_temperature;BME280_humidity;BME280_pressure;Samples;Min_cycle;Max_cycle;Signal;HPM_P1;HPM_P2
2021/03/20 00:00:12;;;;;;;25.95;12.95;;;0.30;99.90;;;;;;5033925;28;20049;-59
2021/03/20 00:02:39;;;;;;;31.95;12.90;;;0.30;99.90;;;;;;5034998;28;20066;-60
2021/03/20 00:05:08;;;;;;;34.47;13.25;;;0.30;99.90;;;;;;5032673;28;20036;-57
2021/03/20 00:07:35;;;;;;;34.78;13.32;;;0.30;99.90;;;;;;5055364;28;20052;-60
2021/03/20 00:10:05;;;;;;;34.65;14.45;;;0.30;99.90;;;;;;5055991;28;20069;-60
2021/03/20 00:12:32;;;;;;;35.75;13.88;;;0.20;99.90;;;;;;5038624;28;20372;-61
2021/03/20 00:14:58;;;;;;;33.00;13.40;;;0.20;99.90;;;;;;5052536;28;20052;-60
2021/03/20 00:17:25;;;;;;;35.03;12.50;;;0.20;99.90;;;;;;5037351;28;20072;-59
2021/03/20 00:19:52;;;;;;;34.97;12.85;;;0.20;99.90;;;;;;5052801;28;20075;-62
2021/03/20 00:22:19;;;;;;;30.48;13.45;;;0.10;99.90;;;;;;5064841;28;20757;-60
2021/03/20 00:24:45;;;;;;;36.10;14.68;;;0.10;99.90;;;;;;5052037;28;20044;-59
2021/03/20 00:27:12;;;;;;;31.33;11.77;;;0.10;99.90;;;;;;5055468;28;20052;-61
2021/03/20 00:29:38;;;;;;;33.03;13.25;;;0.10;99.90;;;;;;5036149;28;20595;-62
2021/03/20 00:32:05;;;;;;;31.90;11.48;;;0.10;99.90;;;;;;5040021;28;20043;-59
2021/03/20 00:34:33;;;;;;;34.20;11.65;;;0.10;99.90;;;;;;5038180;28;20044;-58
2021/03/20 00:36:59;;;;;;;31.58;11.77;;;0.00;99.90;;;;;;5049448;28;20442;-59
2021/03/20 00:39:26;;;;;;;27.98;10.23;;;0.00;99.90;;;;;;5054805;28;20037;-59
2021/03/20 00:41:52;;;;;;;32.97;11.65;;;0.00;99.90;;;;;;5050514;28;20033;-58
2021/03/20 00:44:19;;;;;;;30.55;11.20;;;0.00;99.90;;;;;;5049284;28;20056;-59
2021/03/20 00:46:45;;;;;;;25.95;10.63;;;0.00;99.90;;;;;;5079098;28;20056;-61
2021/03/20 00:49:12;;;;;;;32.72;12.07;;;0.00;99.90;;;;;;5052492;28;20044;-58
2021/03/20 00:51:39;;;;;;;34.10;12.70;;;-0.10;99.90;;;;;;5070380;28;20056;-59
2021/03/20 00:54:05;;;;;;;31.13;11.60;;;-0.10;99.90;;;;;;5074661;28;20384;-60
2021/03/20 00:56:32;;;;;;;28.05;11.65;;;-0.10;99.90;;;;;;5077937;28;20037;-58
2021/03/20 00:58:59;;;;;;;34.33;11.85;;;-0.10;99.90;;;;;;5054466;28;20171;-59
2021/03/20 01:01:25;;;;;;;31.88;11.68;;;-0.10;99.90;;;;;;5037180;28;20036;-60
2021/03/20 01:03:52;;;;;;;27.13;11.15;;;-0.10;99.90;;;;;;5064963;28;20127;-59
2021/03/20 01:06:23;;;;;;;29.90;10.43;;;-0.10;99.90;;;;;;5073020;28;20086;-60
2021/03/20 01:08:51;;;;;;;25.00;10.20;;;-0.10;99.90;;;;;;5056986;28;20045;-59
2021/03/20 01:11:18;;;;;;;24.25;10.73;;;-0.10;99.90;;;;;;5082443;28;20112;-59
2021/03/20 01:13:45;;;;;;;27.73;9.98;;;-0.10;99.90;;;;;;5052016;28;20040;-59
2021/03/20 01:16:11;;;;;;;25.73;10.85;;;-0.20;99.90;;;;;;5070117;28;20460;-59
2021/03/20 01:18:39;;;;;;;24.17;9.93;;;-0.20;99.90;;;;;;5058517;28;20060;-60
2021/03/20 01:21:07;;;;;;;20.20;8.85;;;-0.20;99.90;;;;;;5075758;28;20557;-58
2021/03/20 01:23:33;;;;;;;25.60;10.65;;;-0.20;99.90;;;;;;5067663;28;20818;-59
2021/03/20 01:26:00;;;;;;;22.48;10.40;;;-0.30;99.90;;;;;;5071120;28;20545;-59
2021/03/20 01:28:29;;;;;;;21.95;9.45;;;-0.30;99.90;;;;;;5068905;28;20098;-59
2021/03/20 01:30:57;;;;;;;26.85;10.18;;;-0.30;99.90;;;;;;5051543;28;20036;-59
2021/03/20 01:33:24;;;;;;;26.75;9.48;;;-0.30;99.90;;;;;;5044341;28;20047;-59
2021/03/20 01:35:54;;;;;;;25.33;11.52;;;-0.30;99.90;;;;;;5072792;28;20052;-59
2021/03/20 01:38:21;;;;;;;27.42;10.73;;;-0.40;99.90;;;;;;5054157;28;20059;-60
2021/03/20 01:40:59;;;;;;;26.20;10.40;;;-0.40;99.90;;;;;;5070645;28;20572;-59
2021/03/20 01:43:28;;;;;;;24.67;11.25;;;-0.50;99.90;;;;;;5076614;28;20051;-57
2021/03/20 01:46:14;;;;;;;30.13;11.13;;;-0.50;99.90;;;;;;5084810;28;20047;-59
2021/03/20 01:48:41;;;;;;;31.02;11.13;;;-0.60;99.90;;;;;;5055282;28;20040;-58
2021/03/20 01:51:12;;;;;;;32.00;10.95;;;-0.50;99.90;;;;;;5071377;28;20040;-60
2021/03/20 01:53:48;;;;;;;33.25;12.65;;;-0.50;99.90;;;;;;5071750;28;20044;-59
2021/03/20 01:56:22;;;;;;;29.73;11.25;;;-0.50;99.90;;;;;;5057365;28;20067;-58
2021/03/20 01:58:51;;;;;;;27.15;10.32;;;-0.50;99.90;;;;;;5053818;28;20048;-58
2021/03/20 02:01:24;;;;;;;30.08;11.15;;;-0.50;99.90;;;;;;5066975;28;20055;-59
2021/03/20 02:03:53;;;;;;;30.02;10.93;;;-0.50;99.90;;;;;;5074372;28;20036;-58
2021/03/20 02:06:20;;;;;;;28.60;10.65;;;-0.50;99.90;;;;;;5052565;28;20044;-58
2021/03/20 02:08:48;;;;;;;26.92;10.50;;;-0.50;99.90;;;;;;5069617;28;20044;-59
2021/03/20 02:11:15;;;;;;;23.23;9.70;;;-0.50;99.90;;;;;;5063143;28;20438;-62
2021/03/20 02:13:45;;;;;;;23.20;9.02;;;-0.50;99.90;;;;;;5059753;28;20375;-60
2021/03/20 02:16:22;;;;;;;19.75;8.45;;;-0.50;99.90;;;;;;5049871;28;20058;-58
2021/03/20 02:19:01;;;;;;;20.17;8.68;;;-0.50;99.90;;;;;;5038297;28;20044;-60
2021/03/20 02:21:34;;;;;;;20.98;7.53;;;-0.50;99.90;;;;;;5053009;28;20048;-59
2021/03/20 02:24:35;;;;;;;23.45;8.57;;;-0.50;99.90;;;;;;5073712;28;20059;-58
2021/03/20 02:27:26;;;;;;;22.20;8.93;;;-0.50;99.90;;;;;;4987754;28;20536;-59
2021/03/20 02:30:29;;;;;;;20.20;7.45;;;-0.50;99.90;;;;;;4995202;28;20065;-58
2021/03/20 02:33:06;;;;;;;25.00;8.45;;;-0.50;99.90;;;;;;4991166;28;20068;-58
2021/03/20 02:35:36;;;;;;;20.70;7.57;;;-0.50;99.90;;;;;;4979050;28;20112;-58
2021/03/20 02:38:02;;;;;;;27.27;8.65;;;-0.50;99.90;;;;;;4988900;28;20066;-59
2021/03/20 02:40:52;;;;;;;23.65;7.97;;;-0.60;99.90;;;;;;4982017;28;20485;-58
2021/03/20 02:43:52;;;;;;;20.80;7.70;;;-0.60;99.90;;;;;;4977418;28;20100;-58
2021/03/20 02:46:25;;;;;;;20.17;7.40;;;-0.60;99.90;;;;;;4997854;28;20128;-60
2021/03/20 02:48:57;;;;;;;;;;;-0.60;99.90;;;;;;4993472;28;20128;-57
2021/03/20 02:51:27;;;;;;;26.60;8.13;;;-0.60;99.90;;;;;;4987981;28;20288;-60
2021/03/20 02:54:25;;;;;;;23.38;8.25;;;-0.70;99.90;;;;;;4993663;28;20046;-58
2021/03/20 02:57:06;;;;;;;23.60;8.40;;;-0.70;99.90;;;;;;4982623;28;20136;-60
2021/03/20 02:59:37;;;;;;;25.25;8.57;;;-0.70;99.90;;;;;;4997946;28;20046;-61
2021/03/20 03:02:10;;;;;;;22.67;7.93;;;-0.70;99.90;;;;;;5066248;28;20053;-60
2021/03/20 03:04:59;;;;;;;25.27;7.43;;;-0.80;99.90;;;;;;5035550;28;20047;-59
2021/03/20 03:07:35;;;;;;;20.70;7.93;;;-0.80;99.90;;;;;;5042624;28;20050;-58
2021/03/20 03:10:09;;;;;;;21.27;8.23;;;-0.90;99.90;;;;;;5063485;28;20055;-60
2021/03/20 03:12:45;;;;;;;20.98;7.57;;;-0.90;99.90;;;;;;5070662;28;20052;-60
2021/03/20 03:15:20;;;;;;;24.70;9.00;;;-0.90;99.90;;;;;;5070729;28;20116;-58
2021/03/20 03:17:55;;;;;;;27.73;10.27;;;-1.00;99.90;;;;;;5054417;28;20044;-57
2021/03/20 03:20:27;;;;;;;22.73;9.40;;;-1.10;99.90;;;;;;5031421;28;20041;-58
2021/03/20 03:23:03;;;;;;;25.48;9.15;;;-1.10;99.90;;;;;;5069482;28;20454;-60
2021/03/20 03:25:37;;;;;;;21.42;8.82;;;-1.10;99.90;;;;;;5047176;28;20040;-59
2021/03/20 03:28:07;;;;;;;26.60;8.38;;;-1.10;99.90;;;;;;5082627;28;20487;-60
2021/03/20 03:30:35;;;;;;;24.55;8.55;;;-1.10;99.90;;;;;;5076350;28;20044;-59
2021/03/20 03:33:17;;;;;;;23.23;8.75;;;-1.10;99.90;;;;;;5054474;28;20565;-59
2021/03/20 03:35:49;;;;;;;24.80;8.40;;;-1.10;99.90;;;;;;5066355;28;20045;-59
2021/03/20 03:39:05;;;;;;;20.92;8.13;;;-1.10;99.90;;;;;;5067742;28;20102;-58
2021/03/20 03:41:38;;;;;;;21.50;8.35;;;-1.20;99.90;;;;;;4981742;28;20117;-58
2021/03/20 03:44:07;;;;;;;21.25;7.60;;;-1.20;99.90;;;;;;4985229;28;20080;-59
2021/03/20 03:46:37;;;;;;;19.85;7.43;;;-1.30;99.90;;;;;;4991474;28;20081;-59
2021/03/20 03:49:09;;;;;;;19.50;7.93;;;-1.20;99.90;;;;;;4993900;28;20101;-60
2021/03/20 03:51:35;;;;;;;19.90;7.93;;;-1.20;99.90;;;;;;4988751;28;20038;-58
2021/03/20 03:54:03;;;;;;;23.00;7.78;;;-1.20;99.90;;;;;;5002399;28;20100;-58
2021/03/20 03:56:48;;;;;;;19.20;7.75;;;-1.30;99.90;;;;;;5003390;28;20050;-60
2021/03/20 03:59:44;;;;;;;28.10;7.63;;;-1.30;99.90;;;;;;5002914;28;20072;-60
2021/03/20 04:02:16;;;;;;;17.70;7.32;;;-1.30;99.90;;;;;;4968111;28;20073;-62
2021/03/20 04:05:05;;;;;;;17.48;7.22;;;-1.30;99.90;;;;;;5004332;28;20058;-59
2021/03/20 04:08:11;;;;;;;21.92;7.75;;;-1.40;99.90;;;;;;5003672;28;20042;-59
2021/03/20 04:11:08;;;;;;;22.55;8.50;;;-1.40;99.90;;;;;;4994700;28;20678;-60
2021/03/20 04:13:55;;;;;;;22.33;7.95;;;-1.40;99.90;;;;;;4997473;28;20054;-59
2021/03/20 04:16:27;;;;;;;28.48;8.45;;;-1.40;99.90;;;;;;5001415;28;20129;-59
2021/03/20 04:19:10;;;;;;;30.02;8.73;;;-1.40;99.90;;;;;;5033143;28;20064;-59
2021/03/20 04:22:01;;;;;;;22.77;8.10;;;-1.40;99.90;;;;;;5031591;28;20048;-59
2021/03/20 04:24:47;;;;;;;21.40;8.10;;;-1.50;99.90;;;;;;5015147;28;20508;-58
2021/03/20 04:27:17;;;;;;;27.95;8.75;;;-1.60;99.90;;;;;;5041109;28;20047;-58
2021/03/20 04:29:50;;;;;;;28.95;9.05;;;-1.60;99.90;;;;;;5044451;28;20036;-59
2021/03/20 04:32:25;;;;;;;25.65;9.00;;;-1.60;99.90;;;;;;5052477;28;20037;-59
2021/03/20 04:35:03;;;;;;;24.88;9.63;;;-1.60;99.90;;;;;;5049046;28;20124;-58
2021/03/20 04:37:35;;;;;;;29.05;9.50;;;-1.60;99.90;;;;;;5057144;28;20037;-59
2021/03/20 04:40:07;;;;;;;27.13;9.60;;;-1.60;99.90;;;;;;5057441;28;20713;-60
2021/03/20 04:42:37;;;;;;;24.35;8.88;;;-1.60;99.90;;;;;;5031843;28;20033;-59
2021/03/20 04:45:23;;;;;;;24.83;9.07;;;-1.60;99.90;;;;;;5061899;28;20079;-59
2021/03/20 04:47:52;;;;;;;28.95;8.93;;;-1.60;99.90;;;;;;5070243;28;20032;-58
2021/03/20 04:50:24;;;;;;;28.83;9.98;;;-1.60;99.90;;;;;;5057453;28;20555;-60
2021/03/20 04:52:53;;;;;;;27.30;10.18;;;-1.60;99.90;;;;;;5069649;28;20042;-60
2021/03/20 04:55:20;;;;;;;27.35;9.35;;;-1.70;99.90;;;;;;5083475;28;20059;-59
2021/03/20 04:58:07;;;;;;;28.77;8.88;;;-1.70;99.90;;;;;;5063912;28;20101;-58
2021/03/20 05:00:42;;;;;;;26.02;9.05;;;-1.70;99.90;;;;;;5060531;28;20052;-58
2021/03/20 05:03:34;;;;;;;22.65;8.82;;;-1.80;99.90;;;;;;5053555;28;20133;-58
2021/03/20 05:06:10;;;;;;;28.27;9.93;;;-1.80;99.90;;;;;;5071879;28;20120;-57
2021/03/20 05:08:44;;;;;;;26.77;9.90;;;-1.80;99.90;;;;;;5061435;28;20036;-59
2021/03/20 05:11:20;;;;;;;30.65;10.93;;;-1.70;99.90;;;;;;5075324;28;20036;-61
2021/03/20 05:14:14;;;;;;;35.95;11.52;;;-1.70;99.90;;;;;;5051088;28;20032;-59
2021/03/20 05:16:53;;;;;;;35.88;12.43;;;-1.60;99.90;;;;;;5058298;28;20412;-58
2021/03/20 05:19:21;;;;;;;31.65;10.73;;;-1.60;99.90;;;;;;5074098;28;20044;-57
2021/03/20 05:21:50;;;;;;;32.50;10.63;;;-1.50;99.90;;;;;;5070927;28;20044;-58
2021/03/20 05:24:39;;;;;;;26.27;10.30;;;-1.40;99.90;;;;;;5070802;28;20044;-58
2021/03/20 05:27:08;;;;;;;30.17;9.52;;;-1.30;99.90;;;;;;5069855;28;20515;-59
2021/03/20 05:29:35;;;;;;;26.30;10.07;;;-1.20;99.90;;;;;;5053240;28;20475;-59
2021/03/20 05:32:05;;;;;;;24.17;9.10;;;-1.10;99.90;;;;;;5040339;28;20059;-61
2021/03/20 05:34:39;;;;;;;25.33;9.25;;;-1.00;99.90;;;;;;5071732;28;20041;-58
2021/03/20 05:37:07;;;;;;;25.60;8.70;;;-1.00;99.90;;;;;;5044985;28;20063;-61
2021/03/20 05:39:34;;;;;;;25.88;9.32;;;-0.90;99.90;;;;;;5051731;28;20052;-58
2021/03/20 05:42:39;;;;;;;26.13;9.68;;;-0.80;99.90;;;;;;5072599;28;20048;-57
2021/03/20 05:45:19;;;;;;;19.25;8.95;;;-0.70;99.90;;;;;;5052593;28;20047;-58
2021/03/20 05:47:58;;;;;;;22.85;7.80;;;-0.60;99.90;;;;;;5077484;28;20047;-59
2021/03/20 05:50:55;;;;;;;21.00;8.60;;;-0.60;99.90;;;;;;5062477;28;20037;-59
2021/03/20 05:53:40;;;;;;;31.08;10.13;;;-0.60;99.90;;;;;;5068988;28;20463;-61
2021/03/20 05:56:34;;;;;;;24.70;8.35;;;-0.50;99.90;;;;;;5068183;28;20392;-60
2021/03/20 05:59:20;;;;;;;22.55;9.38;;;-0.40;99.90;;;;;;5055062;28;20040;-58
2021/03/20 06:02:00;;;;;;;30.77;9.98;;;-0.40;99.90;;;;;;5068497;28;20056;-64
2021/03/20 06:04:40;;;;;;;27.02;8.55;;;-0.30;99.90;;;;;;5044090;28;20438;-59
2021/03/20 06:07:46;;;;;;;26.83;10.20;;;-0.30;99.90;;;;;;5046868;28;20116;-58
2021/03/20 06:10:12;;;;;;;21.90;9.20;;;-0.20;99.90;;;;;;5063268;28;20044;-62
2021/03/20 06:13:06;;;;;;;28.58;9.57;;;-0.10;99.90;;;;;;5070997;28;20048;-61
2021/03/20 06:15:58;;;;;;;23.30;9.48;;;0.00;99.90;;;;;;5055008;28;20052;-58
2021/03/20 06:19:05;;;;;;;26.92;9.18;;;0.00;99.90;;;;;;5047716;28;20553;-59
2021/03/20 06:21:46;;;;;;;22.23;8.60;;;0.10;99.90;;;;;;5063620;28;20044;-59
2021/03/20 06:24:44;;;;;;;29.40;9.52;;;0.20;99.90;;;;;;5044519;28;20055;-58
2021/03/20 06:27:14;;;;;;;21.05;7.95;;;0.20;99.90;;;;;;5055607;28;20055;-61
2021/03/20 06:29:56;;;;;;;24.58;9.25;;;0.30;99.90;;;;;;5063955;28;20043;-60
2021/03/20 06:32:30;;;;;;;21.58;7.80;;;0.40;99.90;;;;;;5051846;28;20044;-59
2021/03/20 06:35:14;;;;;;;23.98;8.15;;;0.50;99.90;;;;;;5078916;28;20059;-60
2021/03/20 06:37:47;;;;;;;24.33;9.60;;;0.50;99.90;;;;;;5074738;28;20044;-61
2021/03/20 06:40:17;;;;;;;25.95;9.63;;;0.60;99.90;;;;;;5072748;28;20526;-61
2021/03/20 06:42:44;;;;;;;28.63;9.48;;;0.70;99.90;;;;;;5071349;28;20064;-59
2021/03/20 06:45:29;;;;;;;26.20;9.55;;;0.70;99.90;;;;;;5061511;28;20178;-60
2021/03/20 06:48:08;;;;;;;23.23;8.55;;;0.80;99.90;;;;;;5068038;28;20052;-58
2021/03/20 06:50:46;;;;;;;21.13;7.93;;;0.90;99.90;;;;;;5069707;28;20047;-60
2021/03/20 06:53:16;;;;;;;28.00;8.20;;;1.00;99.90;;;;;;5057947;28;20479;-60
2021/03/20 06:55:45;;;;;;;21.45;8.07;;;1.10;99.90;;;;;;5060170;28;20051;-59
2021/03/20 06:58:29;;;;;;;24.52;7.55;;;1.20;99.90;;;;;;5070587;28;20048;-59
2021/03/20 07:01:09;;;;;;;23.65;8.00;;;1.30;99.90;;;;;;5067680;28;20040;-59
2021/03/20 07:04:04;;;;;;;20.98;7.65;;;1.40;99.90;;;;;;5064477;28;20135;-59
2021/03/20 07:06:39;;;;;;;21.25;7.78;;;1.50;99.90;;;;;;5049247;28;20041;-59
2021/03/20 07:09:07;;;;;;;22.23;9.13;;;1.70;99.90;;;;;;5061056;28;20045;-60
2021/03/20 07:11:41;;;;;;;26.42;9.75;;;1.80;99.90;;;;;;5070128;28;20036;-60
2021/03/20 07:14:35;;;;;;;23.60;8.50;;;2.00;99.90;;;;;;5069863;28;20367;-58
2021/03/20 07:17:06;;;;;;;25.83;9.50;;;2.10;99.90;;;;;;5070733;28;20499;-58
2021/03/20 07:19:33;;;;;;;25.42;8.80;;;2.20;99.90;;;;;;5068667;28;20048;-58
2021/03/20 07:21:59;;;;;;;20.50;8.70;;;2.40;99.90;;;;;;5071131;28;20590;-59
2021/03/20 07:24:38;;;;;;;25.52;9.68;;;2.40;99.90;;;;;;5047708;28;20043;-58
2021/03/20 07:27:04;;;;;;;19.63;8.38;;;2.50;99.90;;;;;;5069210;28;20123;-58
2021/03/20 07:29:43;;;;;;;21.45;8.68;;;2.60;99.90;;;;;;5071157;28;20043;-59
2021/03/20 07:32:17;;;;;;;19.48;9.13;;;2.70;99.90;;;;;;5069190;28;20487;-58
2021/03/20 07:34:46;;;;;;;23.90;7.85;;;2.80;99.90;;;;;;5042373;28;20388;-58
2021/03/20 07:37:18;;;;;;;23.67;8.02;;;2.90;99.90;;;;;;5048287;28;20508;-60
2021/03/20 07:39:47;;;;;;;23.60;9.57;;;3.10;99.90;;;;;;5043225;28;20399;-60
2021/03/20 07:42:46;;;;;;;18.98;7.20;;;3.20;99.90;;;;;;5046092;28;20040;-63
2021/03/20 07:45:18;;;;;;;16.58;5.68;;;3.30;99.90;;;;;;5026338;28;20059;-60
2021/03/20 07:47:54;;;;;;;16.17;6.30;;;3.40;98.60;;;;;;5049325;28;20481;-60
2021/03/20 07:50:30;;;;;;;16.33;5.78;;;3.50;97.40;;;;;;5049979;28;20106;-58
2021/03/20 07:53:12;;;;;;;19.30;7.68;;;3.50;96.70;;;;;;5051754;28;20169;-59
2021/03/20 07:56:18;;;;;;;16.43;5.80;;;3.60;97.20;;;;;;5052881;28;20131;-59
2021/03/20 07:58:47;;;;;;;35.50;11.77;;;3.70;95.80;;;;;;5017499;28;20453;-59
2021/03/20 08:01:26;;;;;;;18.38;6.65;;;3.90;96.50;;;;;;5033728;28;20049;-59
2021/03/20 08:03:59;;;;;;;16.05;5.75;;;4.00;96.50;;;;;;5031763;28;20643;-59
2021/03/20 08:06:25;;;;;;;;;;;4.10;94.50;;;;;;5050451;28;20068;-59
2021/03/20 08:09:17;;;;;;;13.82;5.07;;;4.20;91.80;;;;;;5049223;28;19932;-60
2021/03/20 08:12:07;;;;;;;13.23;4.95;;;4.40;91.00;;;;;;5050530;28;20033;-59
2021/03/20 08:14:54;;;;;;;22.98;8.95;;;4.50;90.30;;;;;;5047344;28;20049;-61
2021/03/20 08:17:21;;;;;;;;;;;4.60;88.70;;;;;;5050081;28;20503;-60
2021/03/20 08:19:49;;;;;;;11.85;5.20;;;4.70;86.00;;;;;;5026660;28;19925;-60
2021/03/20 08:22:40;;;;;;;20.30;6.72;;;4.70;85.00;;;;;;5049187;28;20123;-58
2021/03/20 08:25:40;;;;;;;15.80;5.85;;;4.70;85.80;;;;;;5033577;28;20071;-59
2021/03/20 08:28:37;;;;;;;13.32;5.43;;;4.80;87.20;;;;;;5055363;28;20044;-58
2021/03/20 08:31:04;;;;;;;9.98;4.35;;;4.80;85.30;;;;;;5027979;28;20124;-59
2021/03/20 08:34:01;;;;;;;11.13;5.00;;;4.90;80.50;;;;;;5041252;28;20057;-61
2021/03/20 08:36:50;;;;;;;11.65;5.07;;;4.90;78.60;;;;;;5051573;28;20052;-60
2021/03/20 08:39:54;;;;;;;11.18;5.00;;;4.90;77.50;;;;;;5050770;28;20040;-60
2021/03/20 08:42:23;;;;;;;10.93;4.40;;;5.10;76.70;;;;;;5019288;28;20057;-59
2021/03/20 08:45:08;;;;;;;8.77;4.05;;;5.10;75.90;;;;;;5051390;28;20067;-60
2021/03/20 08:47:53;;;;;;;11.30;4.82;;;5.30;73.90;;;;;;5029204;28;20048;-61
2021/03/20 08:50:39;;;;;;;11.45;4.10;;;5.40;75.10;;;;;;5051867;28;20102;-60
2021/03/20 08:53:47;;;;;;;8.57;3.58;;;5.50;75.90;;;;;;5033520;28;20045;-60
2021/03/20 08:56:40;;;;;;;11.25;4.82;;;5.70;75.20;;;;;;5050564;28;20041;-59
2021/03/20 08:59:14;;;;;;;11.85;4.40;;;5.80;75.50;;;;;;5041978;28;20057;-59
2021/03/20 09:01:45;;;;;;;11.57;4.55;;;6.00;72.80;;;;;;5032335;28;20587;-60
2021/03/20 09:04:19;;;;;;;8.95;4.25;;;6.10;71.20;;;;;;5048377;28;20072;-60
2021/03/20 09:06:55;;;;;;;14.73;4.72;;;6.20;71.60;;;;;;5032697;28;20160;-59
2021/03/20 09:09:39;;;;;;;9.68;4.65;;;6.30;72.70;;;;;;5052346;28;20045;-59
2021/03/20 09:12:13;;;;;;;10.40;4.85;;;6.40;70.80;;;;;;5050069;28;20044;-59
2021/03/20 09:14:43;;;;;;;10.57;4.43;;;6.50;69.40;;;;;;5015492;28;20053;-60
2021/03/20 09:17:14;;;;;;;11.57;4.80;;;6.50;68.50;;;;;;5052675;28;20068;-59
2021/03/20 09:19:52;;;;;;;11.32;4.03;;;6.60;71.00;;;;;;5044302;28;20037;-59
2021/03/20 09:22:32;;;;;;;10.15;4.20;;;6.70;69.20;;;;;;5029187;28;20141;-60
2021/03/20 09:25:25;;;;;;;11.52;5.20;;;6.90;68.90;;;;;;5049457;28;20486;-60
2021/03/20 09:27:59;;;;;;;11.25;4.38;;;7.10;68.80;;;;;;4964822;28;20058;-59
2021/03/20 09:30:40;;;;;;;9.25;4.65;;;7.30;65.90;;;;;;4968912;28;20062;-59
2021/03/20 09:33:27;;;;;;;10.00;4.20;;;7.40;66.20;;;;;;4934272;28;20714;-59
2021/03/20 09:36:20;;;;;;;12.23;4.82;;;7.50;66.40;;;;;;4952280;28;20573;-59
2021/03/20 09:38:54;;;;;;;11.10;4.65;;;7.60;64.30;;;;;;4913729;29;20201;-59
2021/03/20 09:41:24;;;;;;;11.98;4.63;;;7.50;63.40;;;;;;4915242;29;20060;-58
2021/03/20 09:44:00;;;;;;;11.57;4.43;;;7.40;63.50;;;;;;4914999;29;20143;-59
2021/03/20 09:46:39;;;;;;;11.50;4.82;;;7.40;63.00;;;;;;4927263;29;20067;-59
2021/03/20 09:49:07;;;;;;;9.43;4.10;;;7.30;63.20;;;;;;4929789;29;20083;-60
2021/03/20 09:51:52;;;;;;;9.95;4.72;;;7.20;63.20;;;;;;4922283;29;20066;-61
2021/03/20 09:57:18;;;;;;;11.35;4.88;;;7.20;61.30;;;;;;4927638;29;20060;-60
2021/03/20 09:59:45;;;;;;;9.70;4.55;;;7.20;60.40;;;;;;4922798;29;20060;-59
2021/03/20 10:02:13;;;;;;;11.32;5.13;;;7.30;60.60;;;;;;4931884;29;20055;-57
2021/03/20 10:04:53;;;;;;;11.15;4.40;;;7.30;61.70;;;;;;4945529;28;20067;-60
2021/03/20 10:07:20;;;;;;;9.57;4.32;;;7.30;61.40;;;;;;4972362;28;20053;-60
2021/03/20 10:10:11;;;;;;;9.63;4.80;;;7.40;59.70;;;;;;4986441;28;20062;-59
2021/03/20 10:12:43;;;;;;;11.50;4.57;;;7.50;61.00;;;;;;4974720;28;20053;-59
2021/03/20 10:15:16;;;;;;;10.45;4.47;;;7.60;60.60;;;;;;5019548;28;20061;-60
2021/03/20 10:18:17;;;;;;;10.68;4.35;;;7.70;60.20;;;;;;5067691;28;20040;-60
2021/03/20 10:20:55;;;;;;;10.50;4.35;;;7.80;57.20;;;;;;5052061;28;20115;-60
2021/03/20 10:23:46;;;;;;;10.90;4.38;;;7.90;58.70;;;;;;5048056;28;20593;-59
2021/03/20 10:26:24;;;;;;;10.45;4.30;;;8.10;57.00;;;;;;5049899;28;20421;-59
2021/03/20 10:29:00;;;;;;;10.77;4.93;;;8.30;55.40;;;;;;5056069;28;20059;-60
2021/03/20 10:31:29;;;;;;;11.10;4.93;;;8.60;54.80;;;;;;5040265;28;20385;-60
2021/03/20 10:34:09;;;;;;;10.70;4.75;;;8.80;53.30;;;;;;5054089;28;20148;-60
2021/03/20 10:36:44;;;;;;;11.10;4.22;;;9.00;54.60;;;;;;5054772;28;20056;-61
2021/03/20 10:39:19;;;;;;;10.27;4.80;;;9.20;54.30;;;;;;5069008;28;20052;-59
2021/03/20 10:41:46;;;;;;;10.73;4.88;;;9.50;52.20;;;;;;5042468;28;20475;-60
2021/03/20 10:44:25;;;;;;;11.93;5.22;;;9.60;53.20;;;;;;5046677;28;20109;-60
2021/03/20 10:47:18;;;;;;;12.68;6.35;;;9.70;52.10;;;;;;5065835;28;20035;-60
2021/03/20 10:50:19;;;;;;;7.35;3.90;;;9.90;51.10;;;;;;5064566;28;20051;-60
2021/03/20 10:52:45;;;;;;;11.70;5.82;;;10.10;50.60;;;;;;5044553;28;20053;-60
2021/03/20 10:55:20;;;;;;;10.15;4.55;;;10.30;51.30;;;;;;5047546;28;20053;-61
2021/03/20 10:57:47;;;;;;;9.95;4.30;;;10.50;48.50;;;;;;5045846;28;20139;-60
2021/03/20 11:00:22;;;;;;;13.70;5.18;;;10.50;49.60;;;;;;5064178;28;20046;-60
2021/03/20 11:02:49;;;;;;;10.02;4.45;;;10.70;49.40;;;;;;5064374;28;20044;-60
2021/03/20 11:05:22;;;;;;;8.27;4.60;;;10.90;47.80;;;;;;5067458;28;20094;-59
2021/03/20 11:07:54;;;;;;;11.77;4.43;;;11.10;46.40;;;;;;5063840;28;20087;-61
2021/03/20 11:10:29;;;;;;;9.95;4.25;;;11.20;46.80;;;;;;5063131;28;20485;-64
2021/03/20 11:13:00;;;;;;;13.32;5.25;;;11.30;45.50;;;;;;5063383;28;20041;-63
2021/03/20 11:15:29;;;;;;;10.00;4.70;;;11.30;44.60;;;;;;5065008;28;20391;-61
2021/03/20 11:17:58;;;;;;;9.63;4.57;;;11.40;43.70;;;;;;5044606;28;20100;-63
2021/03/20 11:20:33;;;;;;;9.70;4.88;;;11.50;44.10;;;;;;5063105;28;20037;-62
2021/03/20 11:23:00;;;;;;;9.82;4.15;;;11.70;43.00;;;;;;5058516;28;20418;-64
2021/03/20 11:25:33;;;;;;;8.88;3.45;;;11.70;42.10;;;;;;5048411;28;20040;-63
2021/03/20 11:28:07;;;;;;;11.57;4.43;;;11.80;42.80;;;;;;5058351;28;20150;-61
2021/03/20 11:30:46;;;;;;;10.63;5.25;;;12.20;44.90;;;;;;5070172;28;20032;-61
2021/03/20 11:33:17;;;;;;;9.77;4.50;;;12.40;45.10;;;;;;5033859;28;20037;-61
2021/03/20 11:35:53;;;;;;;9.63;4.65;;;12.50;45.10;;;;;;5062899;28;20102;-61
2021/03/20 11:38:21;;;;;;;12.18;6.22;;;12.60;45.20;;;;;;5059332;28;20644;-61
2021/03/20 11:41:11;;;;;;;10.02;5.85;;;12.80;46.40;;;;;;5052127;28;20040;-61
2021/03/20 11:43:51;;;;;;;14.63;6.40;;;12.70;44.50;;;;;;5066847;28;20115;-61
2021/03/20 11:46:22;;;;;;;10.18;4.45;;;12.60;44.90;;;;;;5076225;28;20043;-60
2021/03/20 11:49:06;;;;;;;9.73;4.63;;;12.60;44.00;;;;;;5071208;28;20114;-62
2021/03/20 11:51:36;;;;;;;;;;;12.70;43.00;;;;;;5031726;28;20094;-61
2021/03/20 11:54:18;;;;;;;9.70;5.20;;;12.80;44.40;;;;;;5040723;28;20018;-61
2021/03/20 11:57:00;;;;;;;11.10;5.30;;;12.60;44.10;;;;;;5064908;28;20045;-61
2021/03/20 11:59:37;;;;;;;10.02;5.18;;;12.60;43.80;;;;;;5047220;28;20048;-64
2021/03/20 12:02:10;;;;;;;8.68;4.70;;;12.50;43.10;;;;;;5041726;28;20045;-61
2021/03/20 12:04:36;;;;;;;9.43;4.82;;;12.40;43.40;;;;;;5048158;28;20044;-61
2021/03/20 12:07:33;;;;;;;10.80;4.82;;;12.20;44.20;;;;;;5068971;28;20037;-59
2021/03/20 12:10:21;;;;;;;12.65;4.97;;;12.00;44.20;;;;;;5042087;28;20049;-62
2021/03/20 12:12:52;;;;;;;9.10;4.75;;;11.80;44.80;;;;;;5025163;28;20053;-62
2021/03/20 12:15:29;;;;;;;10.85;5.30;;;11.50;45.00;;;;;;5049440;28;20064;-62
2021/03/20 12:18:00;;;;;;;10.52;4.15;;;11.30;45.30;;;;;;5049317;28;20079;-64
2021/03/20 12:20:40;;;;;;;9.90;5.13;;;11.10;45.70;;;;;;5063184;28;20073;-62
2021/03/20 12:23:17;;;;;;;11.77;5.70;;;11.20;46.30;;;;;;5050624;28;20048;-60
2021/03/20 12:25:58;;;;;;;8.00;4.38;;;11.40;45.60;;;;;;5068138;28;20048;-63
2021/03/20 12:28:34;;;;;;;13.18;5.03;;;11.50;46.00;;;;;;5065708;28;20045;-63
2021/03/20 12:31:11;;;;;;;10.15;5.65;;;11.80;45.60;;;;;;5044212;28;20500;-63
2021/03/20 12:34:06;;;;;;;7.70;3.75;;;12.30;44.50;;;;;;5040806;28;20430;-62
2021/03/20 12:36:54;;;;;;;10.32;4.47;;;12.70;43.00;;;;;;5063219;28;20695;-62
2021/03/20 12:39:23;;;;;;;11.27;4.60;;;13.20;41.70;;;;;;5054330;28;20115;-63
2021/03/20 12:41:56;;;;;;;8.75;4.18;;;13.40;41.10;;;;;;5069514;28;20051;-62
2021/03/20 12:44:39;;;;;;;9.65;4.18;;;13.30;41.20;;;;;;5045338;28;20068;-63
2021/03/20 12:47:06;;;;;;;9.88;4.25;;;13.70;40.80;;;;;;5067177;28;20044;-63
2021/03/20 12:49:35;;;;;;;7.28;3.78;;;14.00;39.90;;;;;;5063771;28;20040;-61
2021/03/20 12:52:05;;;;;;;8.75;4.40;;;14.30;39.20;;;;;;5051077;28;20105;-60
2021/03/20 12:54:44;;;;;;;9.90;3.65;;;14.70;38.70;;;;;;5070127;28;20036;-62
2021/03/20 12:57:21;;;;;;;8.93;4.40;;;15.40;36.00;;;;;;5074706;28;20056;-64
2021/03/20 12:59:48;;;;;;;10.10;4.57;;;16.00;35.20;;;;;;5070318;28;20044;-64
2021/03/20 13:02:15;;;;;;;7.90;4.13;;;16.50;35.80;;;;;;5076347;28;20133;-62
2021/03/20 13:04:42;;;;;;;9.30;4.13;;;16.90;35.10;;;;;;5060290;28;20051;-64
2021/03/20 13:07:09;;;;;;;7.88;3.80;;;17.10;35.00;;;;;;5073454;28;20064;-62
2021/03/20 13:09:37;;;;;;;6.88;3.83;;;17.50;34.00;;;;;;5048446;28;20037;-61
2021/03/20 13:12:05;;;;;;;8.05;3.92;;;17.80;34.60;;;;;;5050573;28;20139;-64
2021/03/20 13:14:33;;;;;;;9.63;4.57;;;18.40;33.00;;;;;;5061591;28;20041;-63
2021/03/20 13:17:04;;;;;;;10.30;6.35;;;18.70;31.70;;;;;;5036679;28;20110;-63
2021/03/20 13:19:32;;;;;;;7.60;4.25;;;18.50;30.60;;;;;;5029386;28;20148;-64
2021/03/20 13:22:00;;;;;;;9.40;4.25;;;18.10;32.00;;;;;;5066492;28;20052;-63
2021/03/20 13:24:27;;;;;;;9.98;5.13;;;18.00;31.90;;;;;;5065119;28;20127;-64
2021/03/20 13:26:54;;;;;;;18.75;9.73;;;18.30;30.30;;;;;;5066151;28;20036;-64
2021/03/20 13:29:21;;;;;;;15.20;7.40;;;18.70;31.40;;;;;;5068066;28;20056;-62